Anglesea, New Jersey
Current Conditions -  °F | °C
As of 2:15 AM on Monday 22 Dec 2014 (Local Time) from KWWD Reporting Station
Clear Clear  
Wind Chill: -2°   Ceiling: Unl
Heat Index: -2°   Visibility: 10mi
Dew Point: -6°   Wind: 3mph
Humidity: 74%   Direction: 20°NNE
Pressure: 30.32"   Gusts: NA
Location:  38.9808°N, 74.8281°W
Report Text: KWWD 220715Z AUTO 02003KT 10SM CLR M02/M06 A3032 RMK AO1
Loading
Personal Weather Stations






























Interactive Weather Map New forecast layout! Learn more

10-Day Weather Forecast

Advertisements
Track Severe Weather on mobile